Time;durP1;ratioP1;P1;durP2;ratioP2;P2;SDS_P1;SDS_P2;PMS_P1;PMS_P2;Temp;Humidity;BMP_temperature;BMP_pressure;BME280_temperature;BME280_humidity;BME280_pressure;Samples;Min_cycle;Max_cycle;Signal;HPM_P1;HPM_P2
2021/03/03 00:02:15;;;;;;;17.90;13.03;;;;;;;;;;5100968;28;20531;-89
2021/03/03 00:04:41;;;;;;;21.23;14.07;;;;;;;;;;5118875;28;20529;-89
2021/03/03 00:07:07;;;;;;;20.20;12.93;;;;;;;;;;5119073;28;20629;-88
2021/03/03 00:09:34;;;;;;;24.20;13.27;;;;;;;;;;5119251;28;20540;-88
2021/03/03 00:12:00;;;;;;;18.73;13.47;;;;;;;;;;5118138;28;20189;-88
2021/03/03 00:14:26;;;;;;;17.17;12.83;;;;;;;;;;5119472;28;20251;-87
2021/03/03 00:16:52;;;;;;;18.93;13.17;;;;;;;;;;5118232;28;20201;-88
2021/03/03 00:19:19;;;;;;;18.33;12.47;;;;;;;;;;5119117;28;20173;-88
2021/03/03 00:21:45;;;;;;;25.77;15.43;;;;;;;;;;5117578;28;20193;-87
2021/03/03 00:24:11;;;;;;;30.80;16.17;;;;;;;;;;5118931;28;20207;-88
2021/03/03 00:26:38;;;;;;;27.93;15.63;;;;;;;;;;5120786;28;20209;-88
2021/03/03 00:29:04;;;;;;;24.70;14.63;;;;;;;;;;5118362;28;20216;-88
2021/03/03 00:31:30;;;;;;;22.00;14.43;;;;;;;;;;5117792;28;20250;-88
2021/03/03 00:33:57;;;;;;;23.50;14.37;;;;;;;;;;5119423;28;20605;-89
2021/03/03 00:36:23;;;;;;;25.23;15.63;;;;;;;;;;5119382;27;20173;-89
2021/03/03 00:38:49;;;;;;;52.13;21.20;;;;;;;;;;5118799;28;20635;-89
2021/03/03 00:41:15;;;;;;;50.17;22.83;;;;;;;;;;5119206;28;20211;-89
2021/03/03 00:43:42;;;;;;;40.33;19.60;;;;;;;;;;5117765;28;20221;-89
2021/03/03 00:46:10;;;;;;;41.33;18.83;;;;;;;;;;5120103;28;20177;-88
2021/03/03 00:48:37;;;;;;;40.37;17.43;;;;;;;;;;5124134;28;20525;-90
2021/03/03 00:51:03;;;;;;;31.13;17.47;;;;;;;;;;5119492;28;20208;-88
2021/03/03 00:53:29;;;;;;;31.60;16.57;;;;;;;;;;5118885;28;20218;-89
2021/03/03 00:55:55;;;;;;;32.20;15.97;;;;;;;;;;5120012;28;20192;-89
2021/03/03 00:58:21;;;;;;;28.63;15.40;;;;;;;;;;5120907;27;20185;-87
2021/03/03 01:00:48;;;;;;;27.17;16.00;;;;;;;;;;5120087;28;20231;-89
2021/03/03 01:03:15;;;;;;;26.53;15.40;;;;;;;;;;5121374;28;20585;-88
2021/03/03 01:05:41;;;;;;;27.37;15.87;;;;;;;;;;5119579;28;20221;-88
2021/03/03 01:08:08;;;;;;;28.27;15.33;;;;;;;;;;5119692;28;20229;-88
2021/03/03 01:10:34;;;;;;;24.10;14.37;;;;;;;;;;5125325;28;20184;-88
2021/03/03 01:13:00;;;;;;;24.63;14.63;;;;;;;;;;5124403;28;20216;-87
2021/03/03 01:15:26;;;;;;;20.47;14.17;;;;;;;;;;5127047;28;20231;-88
2021/03/03 01:17:59;;;;;;;27.53;14.30;;;;;;;;;;5129631;28;20170;-88
2021/03/03 01:20:25;;;;;;;22.73;14.67;;;;;;;;;;5128578;28;20205;-88
2021/03/03 01:22:52;;;;;;;26.33;15.03;;;;;;;;;;5126555;28;20201;-88
2021/03/03 01:25:18;;;;;;;25.43;14.10;;;;;;;;;;5126221;28;20177;-88
2021/03/03 01:27:44;;;;;;;21.30;13.90;;;;;;;;;;5125068;28;20173;-89
2021/03/03 01:30:11;;;;;;;25.83;14.63;;;;;;;;;;5118244;28;20192;-89
2021/03/03 01:32:37;;;;;;;20.87;13.57;;;;;;;;;;5116724;28;20212;-87
2021/03/03 01:35:04;;;;;;;23.10;15.33;;;;;;;;;;5118219;28;20244;-90
2021/03/03 01:37:31;;;;;;;22.93;13.80;;;;;;;;;;5099713;28;20193;-88
2021/03/03 01:39:57;;;;;;;25.63;15.47;;;;;;;;;;5116754;28;20189;-89
2021/03/03 01:42:23;;;;;;;23.50;15.50;;;;;;;;;;5116569;28;20205;-88
2021/03/03 01:44:49;;;;;;;28.47;16.13;;;;;;;;;;5118142;28;20200;-89
2021/03/03 01:47:15;;;;;;;23.50;14.13;;;;;;;;;;5117925;28;20524;-89
2021/03/03 01:49:41;;;;;;;25.50;15.13;;;;;;;;;;5117928;28;20512;-90
2021/03/03 01:52:08;;;;;;;26.63;14.87;;;;;;;;;;5117830;28;20629;-88
2021/03/03 01:54:35;;;;;;;20.90;14.07;;;;;;;;;;5116341;28;20202;-88
2021/03/03 01:57:01;;;;;;;21.97;14.63;;;;;;;;;;5116974;28;20185;-87
2021/03/03 01:59:27;;;;;;;23.13;14.33;;;;;;;;;;5117554;28;20196;-87
2021/03/03 02:01:53;;;;;;;23.67;15.23;;;;;;;;;;5116887;28;20205;-85
2021/03/03 02:04:20;;;;;;;29.20;15.60;;;;;;;;;;5115681;28;20225;-87
2021/03/03 02:06:49;;;;;;;27.00;16.63;;;;;;;;;;5117140;28;20533;-87
2021/03/03 02:09:19;;;;;;;27.73;16.13;;;;;;;;;;5116518;28;20236;-87
2021/03/03 02:11:47;;;;;;;26.53;16.63;;;;;;;;;;5116361;28;20254;-88
2021/03/03 02:14:16;;;;;;;27.40;16.87;;;;;;;;;;5116783;28;20271;-87
2021/03/03 02:16:43;;;;;;;25.07;16.23;;;;;;;;;;5115611;28;20197;-88
2021/03/03 02:19:11;;;;;;;25.07;16.23;;;;;;;;;;5116374;28;20240;-86
2021/03/03 02:21:39;;;;;;;22.60;14.80;;;;;;;;;;5116865;28;20629;-87
2021/03/03 02:24:07;;;;;;;19.67;14.30;;;;;;;;;;5115197;28;20466;-87
2021/03/03 02:26:35;;;;;;;21.43;14.40;;;;;;;;;;5117236;28;20210;-86
2021/03/03 02:29:01;;;;;;;26.43;15.27;;;;;;;;;;5116492;28;20238;-87
2021/03/03 02:31:28;;;;;;;25.80;15.73;;;;;;;;;;5115102;28;20201;-88
2021/03/03 02:33:54;;;;;;;23.23;15.20;;;;;;;;;;5118271;28;20270;-89
2021/03/03 02:36:22;;;;;;;28.00;15.03;;;;;;;;;;5117254;28;20208;-89
2021/03/03 02:38:49;;;;;;;30.00;16.87;;;;;;;;;;5117149;28;20519;-90
2021/03/03 02:41:15;;;;;;;28.63;16.97;;;;;;;;;;5118275;28;20208;-90
2021/03/03 02:43:43;;;;;;;31.37;17.20;;;;;;;;;;5117944;28;20209;-91
2021/03/03 02:46:09;;;;;;;27.30;17.30;;;;;;;;;;5117206;28;20208;-89
2021/03/03 02:48:36;;;;;;;31.87;16.80;;;;;;;;;;5115883;28;20254;-88
2021/03/03 02:51:02;;;;;;;28.47;17.33;;;;;;;;;;5116841;28;20224;-88
2021/03/03 02:53:28;;;;;;;28.03;16.13;;;;;;;;;;5119159;28;20216;-90
2021/03/03 02:55:54;;;;;;;32.00;16.37;;;;;;;;;;5121693;28;20473;-88
2021/03/03 02:58:20;;;;;;;27.47;15.87;;;;;;;;;;5119261;28;20662;-87
2021/03/03 03:00:48;;;;;;;26.80;15.33;;;;;;;;;;5120544;28;20193;-88
2021/03/03 03:03:18;;;;;;;24.30;15.40;;;;;;;;;;5121326;28;20204;-86
2021/03/03 03:05:45;;;;;;;24.33;15.27;;;;;;;;;;5119792;28;20217;-88
2021/03/03 03:08:13;;;;;;;23.60;14.73;;;;;;;;;;5119649;28;20849;-87
2021/03/03 03:10:40;;;;;;;21.73;15.17;;;;;;;;;;5120007;28;20201;-88
2021/03/03 03:13:09;;;;;;;27.03;15.43;;;;;;;;;;5120010;28;20181;-88
2021/03/03 03:15:36;;;;;;;22.27;14.77;;;;;;;;;;5120412;28;20201;-87
2021/03/03 03:18:05;;;;;;;25.87;14.77;;;;;;;;;;5119548;28;20205;-88
2021/03/03 03:20:33;;;;;;;23.07;14.53;;;;;;;;;;5120681;28;20205;-88
2021/03/03 03:23:00;;;;;;;29.90;14.83;;;;;;;;;;5120705;28;20201;-88
2021/03/03 03:25:26;;;;;;;23.53;14.73;;;;;;;;;;5119480;28;20658;-88
2021/03/03 03:27:53;;;;;;;20.73;13.00;;;;;;;;;;5118981;28;20201;-86
2021/03/03 03:30:20;;;;;;;21.23;14.33;;;;;;;;;;5120514;28;20177;-86
2021/03/03 03:32:46;;;;;;;22.80;14.47;;;;;;;;;;5118238;28;20203;-87
2021/03/03 03:35:14;;;;;;;22.27;14.67;;;;;;;;;;5118630;28;20242;-87
2021/03/03 03:37:41;;;;;;;20.30;13.90;;;;;;;;;;5119931;28;20209;-89
2021/03/03 03:40:08;;;;;;;21.27;14.07;;;;;;;;;;5120075;28;20208;-88
2021/03/03 03:42:34;;;;;;;21.17;14.90;;;;;;;;;;5119891;28;20269;-89
2021/03/03 03:45:01;;;;;;;22.90;14.60;;;;;;;;;;5118844;28;20189;-87
2021/03/03 03:47:27;;;;;;;23.47;15.13;;;;;;;;;;5119965;28;20240;-88
2021/03/03 03:49:53;;;;;;;19.17;13.70;;;;;;;;;;5118770;28;20185;-87
2021/03/03 03:52:20;;;;;;;21.93;14.03;;;;;;;;;;5118742;28;20215;-88
2021/03/03 03:54:50;;;;;;;22.03;14.37;;;;;;;;;;5119926;28;20249;-88
2021/03/03 03:57:16;;;;;;;20.30;14.53;;;;;;;;;;5119662;28;20600;-87
2021/03/03 03:59:42;;;;;;;24.13;13.37;;;;;;;;;;5118499;28;20205;-87
2021/03/03 04:02:08;;;;;;;25.23;13.67;;;;;;;;;;5118657;28;20485;-89
2021/03/03 04:04:35;;;;;;;31.87;14.20;;;;;;;;;;5118011;28;20225;-89
2021/03/03 04:07:01;;;;;;;23.33;14.73;;;;;;;;;;5118830;28;20207;-90
2021/03/03 04:09:28;;;;;;;21.27;13.90;;;;;;;;;;5120675;28;20208;-88
2021/03/03 04:11:54;;;;;;;19.57;13.90;;;;;;;;;;5120312;28;20201;-86
2021/03/03 04:14:20;;;;;;;24.37;13.67;;;;;;;;;;5117579;28;20248;-89
2021/03/03 04:16:46;;;;;;;23.23;14.50;;;;;;;;;;5118416;28;20243;-88
2021/03/03 04:19:12;;;;;;;22.50;14.20;;;;;;;;;;5118291;28;20205;-89
2021/03/03 04:21:39;;;;;;;21.80;14.07;;;;;;;;;;5119499;28;20243;-88
2021/03/03 04:24:05;;;;;;;20.43;14.00;;;;;;;;;;5118908;28;20197;-89
2021/03/03 04:26:32;;;;;;;20.57;14.33;;;;;;;;;;5118753;28;20520;-88
2021/03/03 04:28:59;;;;;;;26.10;14.23;;;;;;;;;;5118690;28;20191;-88
2021/03/03 04:31:25;;;;;;;28.63;14.27;;;;;;;;;;5119716;28;20177;-88
2021/03/03 04:33:51;;;;;;;21.97;14.47;;;;;;;;;;5119746;27;20617;-90
2021/03/03 04:36:17;;;;;;;24.43;14.37;;;;;;;;;;5119615;28;20562;-90
2021/03/03 04:38:43;;;;;;;18.77;13.47;;;;;;;;;;5118200;28;20197;-89
2021/03/03 04:41:09;;;;;;;23.83;14.00;;;;;;;;;;5117763;28;20208;-88
2021/03/03 04:43:36;;;;;;;27.03;14.97;;;;;;;;;;5117712;28;20254;-88
2021/03/03 04:46:03;;;;;;;19.43;13.27;;;;;;;;;;5118516;28;20193;-86
2021/03/03 04:48:29;;;;;;;21.30;14.90;;;;;;;;;;5117797;28;20197;-89
2021/03/03 04:50:55;;;;;;;22.17;14.67;;;;;;;;;;5117393;28;20228;-90
2021/03/03 04:53:23;;;;;;;20.60;14.27;;;;;;;;;;5101118;28;20189;-88
2021/03/03 04:55:49;;;;;;;22.40;14.47;;;;;;;;;;5118285;28;20209;-90
2021/03/03 04:58:15;;;;;;;21.03;14.63;;;;;;;;;;5117865;28;20189;-90
2021/03/03 05:00:42;;;;;;;23.03;14.10;;;;;;;;;;5118381;28;20215;-88
2021/03/03 05:03:08;;;;;;;19.23;14.33;;;;;;;;;;5118459;28;20231;-88
2021/03/03 05:05:35;;;;;;;24.67;15.43;;;;;;;;;;5117588;28;20229;-88
2021/03/03 05:08:01;;;;;;;21.53;14.20;;;;;;;;;;5118029;28;20234;-89
2021/03/03 05:10:27;;;;;;;22.60;13.97;;;;;;;;;;5118450;28;20259;-89
2021/03/03 05:12:53;;;;;;;23.13;14.77;;;;;;;;;;5122593;28;20209;-87
2021/03/03 05:15:19;;;;;;;23.67;13.33;;;;;;;;;;5124006;28;20219;-87
2021/03/03 05:17:46;;;;;;;21.13;14.10;;;;;;;;;;5118278;28;20173;-86
2021/03/03 05:20:13;;;;;;;22.43;15.00;;;;;;;;;;5123298;28;20220;-87
2021/03/03 05:22:39;;;;;;;21.67;14.93;;;;;;;;;;5123494;28;20207;-88
2021/03/03 05:25:06;;;;;;;22.93;14.47;;;;;;;;;;5122021;28;20196;-91
2021/03/03 05:27:32;;;;;;;21.03;14.03;;;;;;;;;;5119812;28;20212;-88
2021/03/03 05:29:58;;;;;;;19.63;13.77;;;;;;;;;;5117804;28;20197;-91
2021/03/03 05:32:24;;;;;;;23.73;14.87;;;;;;;;;;5117685;28;20205;-88
2021/03/03 05:34:51;;;;;;;25.37;15.23;;;;;;;;;;5118334;28;20253;-87
2021/03/03 05:37:17;;;;;;;21.23;14.03;;;;;;;;;;5117895;28;20228;-87
2021/03/03 05:39:44;;;;;;;23.43;14.93;;;;;;;;;;5117011;28;20197;-90
2021/03/03 05:42:10;;;;;;;20.07;13.93;;;;;;;;;;5116952;28;20302;-88
2021/03/03 05:44:36;;;;;;;22.77;15.20;;;;;;;;;;5118290;28;20201;-89
2021/03/03 05:47:03;;;;;;;20.67;13.53;;;;;;;;;;5117367;28;20262;-88
2021/03/03 05:49:30;;;;;;;24.20;13.87;;;;;;;;;;5118426;28;20470;-88
2021/03/03 05:51:57;;;;;;;20.63;14.60;;;;;;;;;;5117272;28;20223;-89
2021/03/03 05:54:23;;;;;;;25.40;14.67;;;;;;;;;;5118314;28;20204;-89
2021/03/03 05:56:50;;;;;;;26.13;16.07;;;;;;;;;;5115614;28;20658;-84
2021/03/03 05:59:16;;;;;;;26.40;16.00;;;;;;;;;;5114949;28;20197;-84
2021/03/03 06:01:44;;;;;;;32.63;17.53;;;;;;;;;;5116523;28;20236;-83
2021/03/03 06:04:10;;;;;;;31.83;19.03;;;;;;;;;;5117307;28;20255;-89
2021/03/03 06:06:39;;;;;;;36.43;20.63;;;;;;;;;;5118655;28;20173;-89
2021/03/03 06:09:06;;;;;;;39.60;20.47;;;;;;;;;;5117960;28;20200;-90
2021/03/03 06:11:33;;;;;;;37.13;20.93;;;;;;;;;;5117216;28;20238;-87
2021/03/03 06:13:59;;;;;;;33.97;21.33;;;;;;;;;;5115932;28;20211;-87
2021/03/03 06:16:25;;;;;;;32.17;19.97;;;;;;;;;;5115956;28;20236;-86
2021/03/03 06:18:51;;;;;;;26.47;18.40;;;;;;;;;;5115991;28;20616;-87
2021/03/03 06:21:24;;;;;;;36.37;18.83;;;;;;;;;;5115378;28;20209;-89
2021/03/03 06:23:58;;;;;;;29.33;18.03;;;;;;;;;;5114445;28;20218;-88
2021/03/03 06:26:25;;;;;;;28.97;18.17;;;;;;;;;;5115940;28;20180;-89
2021/03/03 06:28:51;;;;;;;29.07;18.67;;;;;;;;;;5115519;28;20205;-86
2021/03/03 06:31:24;;;;;;;31.20;18.10;;;;;;;;;;5115798;28;20212;-86
2021/03/03 06:33:51;;;;;;;28.80;18.47;;;;;;;;;;5115578;28;20205;-86
2021/03/03 06:36:21;;;;;;;32.07;18.97;;;;;;;;;;5115881;28;20205;-92
2021/03/03 06:38:47;;;;;;;33.30;18.20;;;;;;;;;;5116982;28;20201;-88
2021/03/03 06:41:14;;;;;;;26.93;17.33;;;;;;;;;;5116319;28;20185;-87
2021/03/03 06:43:54;;;;;;;31.97;18.30;;;;;;;;;;5115465;28;20201;-89
2021/03/03 06:46:20;;;;;;;28.10;17.70;;;;;;;;;;5124121;28;20177;-88
2021/03/03 06:48:46;;;;;;;30.87;18.40;;;;;;;;;;5117343;28;20204;-86
2021/03/03 06:51:19;;;;;;;26.10;17.23;;;;;;;;;;5115313;28;20563;-85
2021/03/03 06:53:45;;;;;;;27.97;17.33;;;;;;;;;;5116430;28;20205;-89
2021/03/03 06:56:12;;;;;;;27.90;17.03;;;;;;;;;;5116694;28;20244;-88
2021/03/03 06:58:38;;;;;;;23.93;16.53;;;;;;;;;;5117159;28;20201;-86
2021/03/03 07:01:05;;;;;;;26.53;16.30;;;;;;;;;;5115004;28;20235;-86
2021/03/03 07:03:33;;;;;;;28.70;14.90;;;;;;;;;;5116292;28;20237;-87
2021/03/03 07:05:59;;;;;;;23.83;15.10;;;;;;;;;;5116226;28;20629;-87
2021/03/03 07:08:25;;;;;;;20.60;15.57;;;;;;;;;;5116504;28;20197;-88
2021/03/03 07:10:51;;;;;;;24.67;15.63;;;;;;;;;;5116486;28;20536;-87
2021/03/03 07:13:17;;;;;;;27.33;15.60;;;;;;;;;;5115924;28;20204;-88
2021/03/03 07:15:44;;;;;;;24.43;14.97;;;;;;;;;;5116186;28;20574;-88
2021/03/03 07:18:32;;;;;;;23.90;15.93;;;;;;;;;;5115819;28;20185;-88
2021/03/03 07:20:58;;;;;;;25.93;16.10;;;;;;;;;;5115748;28;20209;-88
2021/03/03 07:23:39;;;;;;;20.97;14.93;;;;;;;;;;5115846;28;20539;-89
2021/03/03 07:26:05;;;;;;;20.87;15.17;;;;;;;;;;5116568;28;20246;-89
2021/03/03 07:28:32;;;;;;;21.77;15.57;;;;;;;;;;5115003;28;20218;-88
2021/03/03 07:30:58;;;;;;;26.23;16.33;;;;;;;;;;5114454;28;20253;-87
2021/03/03 07:33:25;;;;;;;23.80;15.40;;;;;;;;;;5115265;28;20216;-88
2021/03/03 07:35:52;;;;;;;27.30;15.30;;;;;;;;;;5114585;28;20297;-88
2021/03/03 07:38:19;;;;;;;26.30;16.90;;;;;;;;;;5115610;28;20201;-90
2021/03/03 07:40:47;;;;;;;23.80;15.13;;;;;;;;;;5119688;28;20493;-90
2021/03/03 07:43:16;;;;;;;29.43;15.93;;;;;;;;;;5119923;28;20173;-89
2021/03/03 07:45:43;;;;;;;21.77;16.03;;;;;;;;;;5119709;27;20201;-89
2021/03/03 07:48:10;;;;;;;25.77;16.30;;;;;;;;;;5119229;28;20204;-89
2021/03/03 07:50:36;;;;;;;22.50;15.00;;;;;;;;;;5118646;28;20197;-88
2021/03/03 07:53:03;;;;;;;24.27;16.07;;;;;;;;;;5117637;28;20189;-91
2021/03/03 07:55:29;;;;;;;29.90;18.57;;;;;;;;;;5119207;28;20254;-89
2021/03/03 07:57:56;;;;;;;23.43;16.70;;;;;;;;;;5120022;28;20577;-90
2021/03/03 08:00:24;;;;;;;22.10;16.67;;;;;;;;;;5120688;28;20188;-91
2021/03/03 08:02:51;;;;;;;19.17;14.73;;;;;;;;;;5118911;28;20197;-89
2021/03/03 08:05:26;;;;;;;21.73;15.53;;;;;;;;;;5119381;28;20225;-92
2021/03/03 08:08:07;;;;;;;27.27;15.63;;;;;;;;;;5120689;28;20212;-92
2021/03/03 08:10:38;;;;;;;27.27;15.73;;;;;;;;;;5118232;28;20201;-90
2021/03/03 08:13:06;;;;;;;23.43;15.90;;;;;;;;;;5120059;28;20573;-90
2021/03/03 08:15:41;;;;;;;23.30;16.23;;;;;;;;;;5120228;28;20243;-92
2021/03/03 08:18:26;;;;;;;21.03;15.83;;;;;;;;;;5120166;28;20585;-91
2021/03/03 08:20:53;;;;;;;26.17;16.80;;;;;;;;;;5120349;28;20569;-91
2021/03/03 08:23:38;;;;;;;23.87;17.17;;;;;;;;;;5119846;28;20189;-91
2021/03/03 08:26:06;;;;;;;25.07;17.07;;;;;;;;;;5119814;28;20516;-91
2021/03/03 08:28:33;;;;;;;25.93;16.40;;;;;;;;;;5120067;28;20190;-92
2021/03/03 08:31:18;;;;;;;27.53;16.77;;;;;;;;;;5119525;28;20238;-89
2021/03/03 08:33:45;;;;;;;28.17;17.73;;;;;;;;;;5106992;28;20246;-92
2021/03/03 08:36:31;;;;;;;29.97;18.57;;;;;;;;;;5121536;28;20193;-92
2021/03/03 08:39:12;;;;;;;32.43;18.57;;;;;;;;;;5119874;28;20222;-91
2021/03/03 08:41:40;;;;;;;29.00;17.10;;;;;;;;;;5119381;28;20222;-92
2021/03/03 08:44:08;;;;;;;26.07;18.07;;;;;;;;;;5120968;28;20819;-89
2021/03/03 08:46:45;;;;;;;24.23;17.60;;;;;;;;;;5102983;28;20532;-90
2021/03/03 08:49:25;;;;;;;28.27;17.70;;;;;;;;;;5120497;28;20234;-93
2021/03/03 08:52:05;;;;;;;25.73;18.47;;;;;;;;;;5119752;28;20185;-90
2021/03/03 08:54:39;;;;;;;32.00;18.37;;;;;;;;;;5121087;28;20203;-89
2021/03/03 08:57:26;;;;;;;25.63;17.50;;;;;;;;;;5118406;28;20217;-91
2021/03/03 08:59:53;;;;;;;30.73;17.67;;;;;;;;;;5117101;28;20230;-89
2021/03/03 09:02:20;;;;;;;25.23;17.03;;;;;;;;;;5117389;28;20201;-89
2021/03/03 09:04:47;;;;;;;23.63;16.63;;;;;;;;;;5118655;28;20250;-91
2021/03/03 09:07:14;;;;;;;22.77;16.50;;;;;;;;;;5116346;28;20232;-87
2021/03/03 09:09:42;;;;;;;31.20;16.77;;;;;;;;;;5116356;28;20510;-87
2021/03/03 09:12:10;;;;;;;26.40;16.53;;;;;;;;;;5118886;28;20193;-91
2021/03/03 09:14:37;;;;;;;29.33;17.50;;;;;;;;;;5118285;28;20220;-91
2021/03/03 09:17:05;;;;;;;27.53;16.63;;;;;;;;;;5117080;28;20249;-86
2021/03/03 09:19:33;;;;;;;23.80;17.43;;;;;;;;;;5117565;28;20219;-87
2021/03/03 09:21:59;;;;;;;25.50;17.60;;;;;;;;;;5116570;28;20200;-90
2021/03/03 09:24:26;;;;;;;23.20;17.63;;;;;;;;;;5119173;28;20201;-95
2021/03/03 09:27:04;;;;;;;25.57;18.23;;;;;;;;;;5118743;28;20207;-92
2021/03/03 09:29:31;;;;;;;25.10;17.33;;;;;;;;;;5118268;28;20211;-89
2021/03/03 09:31:58;;;;;;;22.33;17.00;;;;;;;;;;5116249;28;20229;-88
2021/03/03 09:34:25;;;;;;;26.17;17.27;;;;;;;;;;5117595;28;20213;-94
2021/03/03 09:36:57;;;;;;;24.90;18.20;;;;;;;;;;5120022;28;20208;-89
2021/03/03 09:39:24;;;;;;;24.53;16.90;;;;;;;;;;5120979;28;20242;-93
2021/03/03 09:41:53;;;;;;;30.77;17.90;;;;;;;;;;5120714;28;20178;-93
2021/03/03 09:44:19;;;;;;;28.33;17.03;;;;;;;;;;5121403;28;20628;-93
2021/03/03 09:46:56;;;;;;;30.07;18.30;;;;;;;;;;5118902;28;20240;-89
2021/03/03 09:49:27;;;;;;;24.53;16.57;;;;;;;;;;5117586;28;20243;-89
2021/03/03 09:51:53;;;;;;;24.50;17.03;;;;;;;;;;5116197;28;20577;-91
2021/03/03 09:54:29;;;;;;;22.93;16.83;;;;;;;;;;5118145;28;20505;-91
2021/03/03 09:57:00;;;;;;;26.37;17.10;;;;;;;;;;5117429;28;20762;-88
2021/03/03 09:59:27;;;;;;;24.90;16.23;;;;;;;;;;5118468;28;20209;-90
2021/03/03 10:01:53;;;;;;;23.73;17.40;;;;;;;;;;5117388;28;20205;-90
2021/03/03 10:04:19;;;;;;;22.40;16.03;;;;;;;;;;5118085;28;20228;-91
2021/03/03 10:06:46;;;;;;;25.33;15.87;;;;;;;;;;5118537;28;20193;-88
2021/03/03 10:09:13;;;;;;;27.77;16.93;;;;;;;;;;5123878;28;20205;-92
2021/03/03 10:11:39;;;;;;;22.97;17.17;;;;;;;;;;5122879;28;20193;-89
2021/03/03 10:14:05;;;;;;;24.43;16.53;;;;;;;;;;5118755;28;20173;-87
2021/03/03 10:16:32;;;;;;;23.90;18.27;;;;;;;;;;5119648;28;20213;-88
2021/03/03 10:18:59;;;;;;;25.60;17.67;;;;;;;;;;5117817;28;20205;-87
2021/03/03 10:21:25;;;;;;;28.23;17.77;;;;;;;;;;5117592;27;20201;-89
2021/03/03 10:23:52;;;;;;;25.67;17.43;;;;;;;;;;5116432;28;20201;-85
2021/03/03 10:26:22;;;;;;;24.00;17.53;;;;;;;;;;5116919;28;20205;-90
2021/03/03 10:28:51;;;;;;;27.50;18.17;;;;;;;;;;5115252;28;20200;-91
2021/03/03 10:31:19;;;;;;;24.07;18.37;;;;;;;;;;5118045;28;20209;-91
2021/03/03 10:33:47;;;;;;;28.67;18.60;;;;;;;;;;5117042;28;20597;-93
2021/03/03 10:36:17;;;;;;;30.03;18.20;;;;;;;;;;5117807;28;20252;-91
2021/03/03 10:38:48;;;;;;;31.80;18.97;;;;;;;;;;5116392;28;20197;-92
2021/03/03 10:41:22;;;;;;;25.73;18.07;;;;;;;;;;5116559;28;20532;-89
2021/03/03 10:43:49;;;;;;;30.60;18.63;;;;;;;;;;5115843;28;20535;-88
2021/03/03 10:46:16;;;;;;;28.10;18.47;;;;;;;;;;5116157;28;20197;-90
2021/03/03 10:48:42;;;;;;;25.90;18.53;;;;;;;;;;5117462;28;20205;-90
2021/03/03 10:51:09;;;;;;;26.87;18.87;;;;;;;;;;5115284;28;20214;-89
2021/03/03 10:53:49;;;;;;;25.63;18.07;;;;;;;;;;5113224;28;20185;-88
2021/03/03 10:56:19;;;;;;;27.47;19.00;;;;;;;;;;5115164;28;20220;-86
2021/03/03 10:58:46;;;;;;;31.07;19.07;;;;;;;;;;5115266;28;20213;-88
2021/03/03 11:01:12;;;;;;;32.83;19.87;;;;;;;;;;5115306;28;20235;-87
2021/03/03 11:03:49;;;;;;;26.83;19.10;;;;;;;;;;5114390;28;20213;-87
2021/03/03 11:06:15;;;;;;;26.17;18.23;;;;;;;;;;5115097;28;20207;-90
2021/03/03 11:08:41;;;;;;;27.97;18.63;;;;;;;;;;5114012;28;20193;-88
2021/03/03 11:11:07;;;;;;;26.93;18.30;;;;;;;;;;5116721;28;20275;-89
2021/03/03 11:13:33;;;;;;;29.00;19.43;;;;;;;;;;5116253;28;20597;-89
2021/03/03 11:16:01;;;;;;;27.03;19.27;;;;;;;;;;5119754;28;20577;-86
2021/03/03 11:18:27;;;;;;;30.83;19.50;;;;;;;;;;5119662;28;20223;-92
2021/03/03 11:20:53;;;;;;;27.83;19.30;;;;;;;;;;5126373;28;20216;-87
2021/03/03 11:23:19;;;;;;;34.13;18.87;;;;;;;;;;5119670;28;20208;-87
2021/03/03 11:25:45;;;;;;;31.50;18.17;;;;;;;;;;5119499;28;20181;-81
2021/03/03 11:28:11;;;;;;;26.67;18.57;;;;;;;;;;5120424;28;20204;-79
2021/03/03 11:30:37;;;;;;;35.10;19.23;;;;;;;;;;5119972;28;20262;-87
2021/03/03 11:33:05;;;;;;;40.77;19.30;;;;;;;;;;5121028;28;20223;-81
2021/03/03 11:35:31;;;;;;;28.50;18.83;;;;;;;;;;5119454;28;20596;-79
2021/03/03 11:37:57;;;;;;;26.07;18.47;;;;;;;;;;5118205;28;20653;-83
2021/03/03 11:40:24;;;;;;;28.73;19.40;;;;;;;;;;5120779;28;20201;-86
2021/03/03 11:42:50;;;;;;;28.97;18.23;;;;;;;;;;5119525;28;20247;-84
2021/03/03 11:45:17;;;;;;;26.63;18.73;;;;;;;;;;5121227;28;20597;-81
2021/03/03 11:47:43;;;;;;;26.00;18.30;;;;;;;;;;5118281;28;20486;-82
2021/03/03 11:50:11;;;;;;;25.03;18.33;;;;;;;;;;5118226;27;20240;-81
2021/03/03 11:52:37;;;;;;;26.63;18.17;;;;;;;;;;5117742;28;20248;-86
2021/03/03 11:55:03;;;;;;;28.50;18.37;;;;;;;;;;5118990;28;20205;-94
2021/03/03 11:57:30;;;;;;;28.10;18.57;;;;;;;;;;5117084;28;20262;-85
2021/03/03 11:59:56;;;;;;;23.37;18.30;;;;;;;;;;5118036;28;20513;-84
2021/03/03 12:02:22;;;;;;;27.70;18.30;;;;;;;;;;5118419;28;20209;-84
2021/03/03 12:04:48;;;;;;;27.63;17.57;;;;;;;;;;5116627;28;20225;-87
2021/03/03 12:07:15;;;;;;;21.67;17.63;;;;;;;;;;5118030;28;20231;-86
2021/03/03 12:09:41;;;;;;;25.80;17.77;;;;;;;;;;5119467;28;20201;-91
2021/03/03 12:12:08;;;;;;;28.73;17.77;;;;;;;;;;5118230;28;20239;-87
2021/03/03 12:14:35;;;;;;;31.07;18.20;;;;;;;;;;5097396;28;20222;-87
2021/03/03 12:17:01;;;;;;;24.83;18.13;;;;;;;;;;5097867;28;20256;-92
2021/03/03 12:19:27;;;;;;;25.47;17.40;;;;;;;;;;5098206;28;20245;-89
2021/03/03 12:21:53;;;;;;;26.23;18.20;;;;;;;;;;5100307;28;20208;-90
2021/03/03 12:24:20;;;;;;;23.50;17.70;;;;;;;;;;5102518;28;20236;-87
2021/03/03 12:26:46;;;;;;;31.10;18.07;;;;;;;;;;5119144;28;20209;-86
2021/03/03 12:29:12;;;;;;;26.10;17.67;;;;;;;;;;5119584;28;20228;-87
2021/03/03 12:31:38;;;;;;;25.57;17.10;;;;;;;;;;5119109;28;20204;-85
2021/03/03 12:34:04;;;;;;;27.93;18.07;;;;;;;;;;5117258;27;20228;-84
2021/03/03 12:36:30;;;;;;;29.70;18.00;;;;;;;;;;5117372;28;20253;-83
2021/03/03 12:38:56;;;;;;;25.87;17.23;;;;;;;;;;5115521;28;20212;-82
2021/03/03 12:41:23;;;;;;;29.73;17.73;;;;;;;;;;5116209;28;20196;-83
2021/03/03 12:43:49;;;;;;;27.63;17.80;;;;;;;;;;5116296;28;20237;-84
2021/03/03 12:46:16;;;;;;;26.60;16.53;;;;;;;;;;5116723;28;20228;-85
2021/03/03 12:48:42;;;;;;;26.50;18.38;;;;;;;;;;5115736;28;21271;-82
2021/03/03 12:51:08;;;;;;;23.47;17.27;;;;;;;;;;5117622;28;20228;-84
2021/03/03 12:53:34;;;;;;;30.37;17.53;;;;;;;;;;5115639;28;20250;-84
2021/03/03 12:56:00;;;;;;;26.23;17.77;;;;;;;;;;5117204;27;20244;-84
2021/03/03 12:58:27;;;;;;;30.30;16.33;;;;;;;;;;5117578;27;20233;-87
2021/03/03 13:00:54;;;;;;;22.17;16.77;;;;;;;;;;5117554;27;20632;-84
2021/03/03 13:03:20;;;;;;;26.03;16.63;;;;;;;;;;5117598;28;20239;-85
2021/03/03 13:05:46;;;;;;;23.93;17.77;;;;;;;;;;5114909;28;20245;-84
2021/03/03 13:08:12;;;;;;;28.30;16.97;;;;;;;;;;5116912;28;20244;-83
2021/03/03 13:10:39;;;;;;;30.57;15.97;;;;;;;;;;5116283;28;20653;-86
2021/03/03 13:13:05;;;;;;;24.97;15.57;;;;;;;;;;5115554;28;20221;-84
2021/03/03 13:15:32;;;;;;;20.80;15.23;;;;;;;;;;5116767;28;20622;-82
2021/03/03 13:17:58;;;;;;;27.03;16.10;;;;;;;;;;5116600;28;20584;-82
2021/03/03 13:20:24;;;;;;;22.70;14.77;;;;;;;;;;5116339;28;20230;-82
2021/03/03 13:22:50;;;;;;;22.50;15.17;;;;;;;;;;5116047;28;20639;-82
2021/03/03 13:25:17;;;;;;;22.93;14.77;;;;;;;;;;5115273;28;20231;-82
2021/03/03 13:27:43;;;;;;;22.93;15.53;;;;;;;;;;5116692;28;20229;-82
2021/03/03 13:30:10;;;;;;;23.17;16.00;;;;;;;;;;5115698;28;20225;-83
2021/03/03 13:32:37;;;;;;;22.27;14.60;;;;;;;;;;5116289;28;20763;-82
2021/03/03 13:35:04;;;;;;;21.27;14.67;;;;;;;;;;5114512;28;20204;-82
2021/03/03 13:37:30;;;;;;;26.73;15.37;;;;;;;;;;5115171;28;20248;-82
2021/03/03 13:39:56;;;;;;;28.07;15.57;;;;;;;;;;5115478;28;20229;-82
2021/03/03 13:42:22;;;;;;;20.63;14.30;;;;;;;;;;5116584;28;20501;-81
2021/03/03 13:44:48;;;;;;;19.67;14.43;;;;;;;;;;5115648;28;20248;-82
2021/03/03 13:47:14;;;;;;;20.10;14.90;;;;;;;;;;5116301;28;20258;-82
2021/03/03 13:49:41;;;;;;;22.13;15.03;;;;;;;;;;5115183;28;20635;-82
2021/03/03 13:52:08;;;;;;;26.93;14.90;;;;;;;;;;5115453;28;20239;-82
2021/03/03 13:54:34;;;;;;;24.83;15.43;;;;;;;;;;5115712;27;20269;-81
2021/03/03 13:57:00;;;;;;;29.47;16.60;;;;;;;;;;5116104;28;20249;-82
2021/03/03 13:59:26;;;;;;;21.33;14.63;;;;;;;;;;5115857;28;20284;-83
2021/03/03 14:01:52;;;;;;;23.77;14.17;;;;;;;;;;5115744;28;20239;-81
2021/03/03 14:04:18;;;;;;;21.87;14.10;;;;;;;;;;5115098;28;20248;-81
2021/03/03 14:06:45;;;;;;;21.97;15.00;;;;;;;;;;5115396;28;20233;-82
2021/03/03 14:09:11;;;;;;;25.33;15.90;;;;;;;;;;5115496;28;20232;-81
2021/03/03 14:11:37;;;;;;;21.00;14.40;;;;;;;;;;5115373;28;20537;-82
2021/03/03 14:14:03;;;;;;;26.30;15.67;;;;;;;;;;5115409;28;20228;-81
2021/03/03 14:16:30;;;;;;;21.40;14.43;;;;;;;;;;5115537;28;20553;-82
2021/03/03 14:18:56;;;;;;;21.80;14.87;;;;;;;;;;5115628;28;20236;-81